createdAt,value
2017-07-23T00:00:23.568Z,0
2017-07-23T00:01:04.042Z,0
2017-07-23T00:01:44.573Z,0
2017-07-23T00:02:25.083Z,0
2017-07-23T00:03:05.630Z,0
2017-07-23T00:03:46.119Z,0
2017-07-23T00:04:26.769Z,0
2017-07-23T00:05:07.226Z,0
2017-07-23T00:05:47.811Z,0
2017-07-23T00:06:28.548Z,0
2017-07-23T00:07:09.054Z,0
2017-07-23T00:07:49.560Z,0
2017-07-23T00:08:30.240Z,0
2017-07-23T00:09:10.899Z,0
2017-07-23T00:09:51.410Z,0
2017-07-23T00:10:31.929Z,0
2017-07-23T00:11:12.416Z,0
2017-07-23T00:11:53.009Z,0
2017-07-23T00:12:34.048Z,0
2017-07-23T00:13:14.294Z,0
2017-07-23T00:13:54.948Z,0
2017-07-23T00:14:35.493Z,0
2017-07-23T00:15:16.824Z,0
2017-07-23T00:15:57.341Z,0
2017-07-23T00:16:37.842Z,0
2017-07-23T00:17:18.332Z,0
2017-07-23T00:17:58.934Z,0
2017-07-23T00:18:39.454Z,0
2017-07-23T00:19:20.026Z,0
2017-07-23T00:20:00.575Z,0
2017-07-23T00:20:41.096Z,0
2017-07-23T00:21:21.689Z,0
2017-07-23T00:22:02.155Z,0
2017-07-23T00:22:42.627Z,0
2017-07-23T00:23:23.201Z,0
2017-07-23T00:24:03.660Z,0
2017-07-23T00:24:44.179Z,0
2017-07-23T00:25:24.813Z,0
2017-07-23T00:26:05.410Z,0
2017-07-23T00:26:45.907Z,0
2017-07-23T00:27:26.376Z,0
2017-07-23T00:28:06.899Z,0
2017-07-23T00:28:47.431Z,0
2017-07-23T00:29:27.955Z,0
2017-07-23T00:30:08.474Z,0
2017-07-23T00:30:49.004Z,0
2017-07-23T00:31:29.531Z,0
2017-07-23T00:32:10.081Z,0
2017-07-23T00:32:50.562Z,0
2017-07-23T00:33:31.137Z,0
2017-07-23T00:34:11.623Z,0
2017-07-23T00:34:52.099Z,0
2017-07-23T00:35:32.633Z,0
2017-07-23T00:36:13.166Z,0
2017-07-23T00:36:53.645Z,0
2017-07-23T00:37:34.094Z,0
2017-07-23T00:38:14.662Z,0
2017-07-23T00:38:55.297Z,0
2017-07-23T00:39:35.829Z,0
2017-07-23T00:40:16.276Z,0
2017-07-23T00:40:56.747Z,0
2017-07-23T00:41:37.309Z,0
2017-07-23T00:42:17.842Z,0
2017-07-23T00:42:58.311Z,0
2017-07-23T00:43:38.837Z,0
2017-07-23T00:44:19.369Z,0
2017-07-23T00:44:59.858Z,0
2017-07-23T00:45:40.361Z,0
2017-07-23T00:46:20.831Z,0
2017-07-23T00:47:01.347Z,0
2017-07-23T00:47:41.823Z,0
2017-07-23T00:48:22.309Z,0
2017-07-23T00:49:02.868Z,0
2017-07-23T00:49:43.326Z,0
2017-07-23T00:50:23.846Z,0
2017-07-23T00:51:04.351Z,0
2017-07-23T00:51:44.853Z,0
2017-07-23T00:52:25.356Z,0
2017-07-23T00:53:05.834Z,0
2017-07-23T00:53:46.341Z,0
2017-07-23T00:54:26.835Z,0
2017-07-23T00:55:07.353Z,0
2017-07-23T00:55:47.840Z,0
2017-07-23T00:56:28.348Z,0
2017-07-23T00:57:08.874Z,0
2017-07-23T00:57:49.339Z,0
2017-07-23T00:58:29.853Z,0
2017-07-23T00:59:10.423Z,0
2017-07-23T00:59:50.946Z,0
2017-07-23T01:00:31.442Z,0
2017-07-23T01:01:11.949Z,0
2017-07-23T01:01:52.463Z,0
2017-07-23T01:02:33.064Z,0
2017-07-23T01:03:13.596Z,0
2017-07-23T01:03:54.042Z,0
2017-07-23T01:04:34.555Z,0
2017-07-23T01:05:15.018Z,0
2017-07-23T01:05:55.741Z,0
2017-07-23T01:06:36.225Z,0
2017-07-23T01:07:16.741Z,0
2017-07-23T01:07:57.238Z,0
2017-07-23T01:08:37.744Z,0
2017-07-23T01:09:18.255Z,0
2017-07-23T01:09:58.741Z,0
2017-07-23T01:10:39.295Z,0
2017-07-23T01:11:19.864Z,0
2017-07-23T01:12:00.342Z,0
2017-07-23T01:12:40.772Z,0
2017-07-23T01:13:21.328Z,0
2017-07-23T01:14:01.818Z,0
2017-07-23T01:14:42.398Z,0
2017-07-23T01:15:22.842Z,0
2017-07-23T01:16:03.402Z,0
2017-07-23T01:16:43.882Z,0
2017-07-23T01:17:24.367Z,0
2017-07-23T01:18:04.884Z,0
2017-07-23T01:18:45.371Z,0
2017-07-23T01:19:25.870Z,0
2017-07-23T01:20:06.339Z,0
2017-07-23T01:20:46.853Z,0
2017-07-23T01:21:27.345Z,0
2017-07-23T01:22:07.821Z,0
2017-07-23T01:22:48.373Z,0
2017-07-23T01:23:28.855Z,0
2017-07-23T01:24:09.324Z,0
2017-07-23T01:24:49.850Z,0
2017-07-23T01:25:30.340Z,0
2017-07-23T01:26:10.798Z,0
2017-07-23T01:26:51.298Z,0
2017-07-23T01:27:31.797Z,0
2017-07-23T01:28:12.509Z,0
2017-07-23T01:28:53.007Z,0
2017-07-23T01:29:33.535Z,0
2017-07-23T01:30:14.044Z,0
2017-07-23T01:30:54.494Z,0
2017-07-23T01:31:35.052Z,0
2017-07-23T01:32:15.571Z,0
2017-07-23T01:32:56.080Z,0
2017-07-23T01:33:36.564Z,0
2017-07-23T01:34:17.021Z,0
2017-07-23T01:34:57.555Z,0
2017-07-23T01:35:38.102Z,0
2017-07-23T01:36:18.669Z,0
2017-07-23T01:36:59.059Z,0
2017-07-23T01:37:39.620Z,0
2017-07-23T01:38:20.114Z,0
2017-07-23T01:39:00.758Z,0
2017-07-23T01:39:41.175Z,0
2017-07-23T01:40:21.787Z,0
2017-07-23T01:41:02.235Z,0
2017-07-23T01:41:42.788Z,0
2017-07-23T01:42:23.281Z,0
2017-07-23T01:43:03.770Z,0
2017-07-23T01:43:44.253Z,0
2017-07-23T01:44:24.756Z,0
2017-07-23T01:45:05.250Z,0
2017-07-23T01:45:45.724Z,0
2017-07-23T01:46:26.210Z,0
2017-07-23T01:47:06.665Z,0
2017-07-23T01:47:47.202Z,0
2017-07-23T01:48:27.668Z,0
2017-07-23T01:49:08.201Z,0
2017-07-23T01:49:48.776Z,0
2017-07-23T01:50:29.331Z,0
2017-07-23T01:51:09.761Z,0
2017-07-23T01:51:50.317Z,0
2017-07-23T01:52:30.761Z,0
2017-07-23T01:53:11.240Z,0
2017-07-23T01:53:51.743Z,0
2017-07-23T01:54:32.279Z,0
2017-07-23T01:55:12.757Z,0
2017-07-23T01:55:53.219Z,0
2017-07-23T01:56:33.762Z,0
2017-07-23T01:57:14.285Z,0
2017-07-23T01:57:54.721Z,0
2017-07-23T01:58:35.218Z,0
2017-07-23T01:59:15.718Z,0
2017-07-23T01:59:56.226Z,0
2017-07-23T02:00:36.736Z,0
2017-07-23T02:01:17.256Z,0
2017-07-23T02:01:57.762Z,0
2017-07-23T02:02:38.164Z,0
2017-07-23T02:03:18.634Z,0
2017-07-23T02:03:59.152Z,0
2017-07-23T02:04:39.634Z,0
2017-07-23T02:05:20.202Z,0
2017-07-23T02:06:00.695Z,0
2017-07-23T02:06:41.249Z,0
2017-07-23T02:07:21.735Z,0
2017-07-23T02:08:02.341Z,0
2017-07-23T02:08:42.866Z,0
2017-07-23T02:09:23.387Z,0
2017-07-23T02:10:03.838Z,0
2017-07-23T02:10:44.393Z,0
2017-07-23T02:11:24.903Z,0
2017-07-23T02:12:05.431Z,0
2017-07-23T02:12:45.874Z,0
2017-07-23T02:13:26.387Z,0
2017-07-23T02:14:07.141Z,0
2017-07-23T02:14:47.669Z,0
2017-07-23T02:15:28.162Z,0
2017-07-23T02:16:08.666Z,0
2017-07-23T02:16:49.175Z,0
2017-07-23T02:17:29.688Z,0
2017-07-23T02:18:10.169Z,0
2017-07-23T02:18:50.712Z,0
2017-07-23T02:19:31.174Z,0
2017-07-23T02:20:11.766Z,0
2017-07-23T02:20:52.224Z,0
2017-07-23T02:21:32.724Z,0
2017-07-23T02:22:13.242Z,0
2017-07-23T02:22:53.689Z,0
2017-07-23T02:23:34.164Z,0
2017-07-23T02:24:14.661Z,0
2017-07-23T02:26:27.961Z,0
2017-07-23T02:27:08.456Z,0
2017-07-23T02:27:49.011Z,0
2017-07-23T02:28:29.456Z,0
2017-07-23T02:29:10.044Z,0
2017-07-23T02:29:50.542Z,0
2017-07-23T02:30:31.026Z,0
2017-07-23T02:31:11.483Z,0
2017-07-23T02:31:52.002Z,0
2017-07-23T02:32:32.532Z,0
2017-07-23T02:33:13.022Z,0
2017-07-23T02:33:53.566Z,0
2017-07-23T02:34:34.060Z,0
2017-07-23T02:35:14.560Z,0
2017-07-23T02:35:55.155Z,0
2017-07-23T02:36:35.630Z,0
2017-07-23T02:37:16.090Z,0
2017-07-23T02:37:56.544Z,0
2017-07-23T02:38:37.087Z,0
2017-07-23T02:39:17.533Z,0
2017-07-23T02:39:58.107Z,0
2017-07-23T02:40:38.579Z,0
2017-07-23T02:41:19.068Z,0
2017-07-23T02:41:59.716Z,0
2017-07-23T02:42:40.195Z,0
2017-07-23T02:43:20.716Z,0
2017-07-23T02:44:01.280Z,0
2017-07-23T02:44:41.870Z,0
2017-07-23T02:45:22.377Z,0
2017-07-23T02:46:02.839Z,0
2017-07-23T02:46:43.344Z,0
2017-07-23T02:47:23.890Z,0
2017-07-23T02:48:04.362Z,0
2017-07-23T02:48:44.850Z,0
2017-07-23T02:49:25.376Z,0
2017-07-23T02:50:05.898Z,0
2017-07-23T02:50:46.384Z,0
2017-07-23T02:51:26.910Z,0
2017-07-23T02:52:07.411Z,0
2017-07-23T02:52:48.053Z,0
2017-07-23T02:53:28.610Z,0
2017-07-23T02:54:09.122Z,0
2017-07-23T02:54:49.587Z,0
2017-07-23T02:55:30.060Z,0
2017-07-23T02:56:10.599Z,0
2017-07-23T02:56:51.096Z,0
2017-07-23T02:57:31.578Z,0
2017-07-23T02:58:12.111Z,0
2017-07-23T02:58:52.543Z,0
2017-07-23T02:59:33.042Z,0
2017-07-23T03:00:13.548Z,0
2017-07-23T03:00:54.045Z,0
2017-07-23T03:01:34.540Z,0
2017-07-23T03:02:15.040Z,0
2017-07-23T03:02:55.523Z,0
2017-07-23T03:03:36.164Z,0
2017-07-23T03:04:16.682Z,0
2017-07-23T03:04:57.143Z,0
2017-07-23T03:05:37.624Z,0
2017-07-23T03:06:18.169Z,0
2017-07-23T03:06:58.615Z,0
2017-07-23T03:07:39.128Z,0
2017-07-23T03:08:19.630Z,0
2017-07-23T03:09:00.154Z,0
2017-07-23T03:09:40.654Z,0
2017-07-23T03:10:21.129Z,0
2017-07-23T03:11:01.605Z,0
2017-07-23T03:11:42.119Z,0
2017-07-23T03:12:22.673Z,0
2017-07-23T03:13:03.164Z,0
2017-07-23T03:13:43.694Z,0
2017-07-23T03:14:24.120Z,0
2017-07-23T03:15:04.665Z,0
2017-07-23T03:15:45.162Z,0
2017-07-23T03:16:25.636Z,0
2017-07-23T03:17:06.120Z,0
2017-07-23T03:17:46.625Z,0
2017-07-23T03:18:27.168Z,0
2017-07-23T03:19:07.690Z,0
2017-07-23T03:19:48.171Z,0
2017-07-23T03:20:28.683Z,0
2017-07-23T03:21:09.255Z,0
2017-07-23T03:21:49.687Z,0
2017-07-23T03:22:30.173Z,0
2017-07-23T03:23:10.696Z,0
2017-07-23T03:23:51.214Z,0
2017-07-23T03:24:31.709Z,0
2017-07-23T03:25:12.161Z,0
2017-07-23T03:25:52.674Z,0
2017-07-23T03:26:33.157Z,0
2017-07-23T03:27:13.665Z,0
2017-07-23T03:27:54.164Z,0
2017-07-23T03:28:34.724Z,0
2017-07-23T03:29:15.178Z,0
2017-07-23T03:29:55.657Z,0
2017-07-23T03:30:36.147Z,0
2017-07-23T03:31:16.716Z,0
2017-07-23T03:31:57.199Z,0
2017-07-23T03:32:37.759Z,0
2017-07-23T03:33:18.230Z,0
2017-07-23T03:33:58.757Z,0
2017-07-23T03:34:39.259Z,0
2017-07-23T03:35:19.782Z,0
2017-07-23T03:36:00.190Z,0
2017-07-23T03:36:40.738Z,0
2017-07-23T03:37:21.205Z,0
2017-07-23T03:38:01.742Z,0
2017-07-23T03:38:42.190Z,0
2017-07-23T03:39:22.686Z,0
2017-07-23T03:40:03.228Z,0
2017-07-23T03:40:43.744Z,0
2017-07-23T03:41:24.339Z,0
2017-07-23T03:42:04.779Z,0
2017-07-23T03:42:45.326Z,0
2017-07-23T03:43:25.799Z,0
2017-07-23T03:44:06.260Z,0
2017-07-23T03:44:46.773Z,0
2017-07-23T03:45:27.273Z,0
2017-07-23T03:46:07.739Z,0
2017-07-23T03:46:48.251Z,0
2017-07-23T03:47:28.760Z,0
2017-07-23T03:48:09.278Z,0
2017-07-23T03:48:49.803Z,0
2017-07-23T03:49:30.269Z,0
2017-07-23T03:50:10.867Z,0
2017-07-23T03:50:51.353Z,0
2017-07-23T03:51:31.829Z,0
2017-07-23T03:52:12.429Z,0
2017-07-23T03:52:52.941Z,0
2017-07-23T03:53:33.476Z,0
2017-07-23T03:54:13.939Z,0
2017-07-23T03:54:54.443Z,0
2017-07-23T03:55:34.917Z,0
2017-07-23T03:56:15.465Z,0
2017-07-23T03:56:56.002Z,0
2017-07-23T03:57:36.459Z,0
2017-07-23T03:58:16.882Z,0
2017-07-23T03:58:57.455Z,0
2017-07-23T03:59:37.914Z,0
2017-07-23T04:00:18.456Z,0
2017-07-23T04:00:58.956Z,0
2017-07-23T04:01:39.466Z,0
2017-07-23T04:02:20.005Z,0
2017-07-23T04:03:00.473Z,0
2017-07-23T04:03:41.021Z,0
2017-07-23T04:04:21.495Z,0
2017-07-23T04:05:01.990Z,0
2017-07-23T04:05:42.466Z,0
2017-07-23T04:06:22.970Z,0
2017-07-23T04:07:03.470Z,0
2017-07-23T04:07:43.972Z,0
2017-07-23T04:08:24.585Z,0
2017-07-23T04:09:05.091Z,0
2017-07-23T04:09:45.625Z,0
2017-07-23T04:10:26.154Z,0
2017-07-23T04:11:06.659Z,0
2017-07-23T04:11:47.176Z,0
2017-07-23T04:12:27.656Z,0
2017-07-23T04:13:08.143Z,0
2017-07-23T04:13:48.652Z,0
2017-07-23T04:14:29.138Z,0
2017-07-23T04:15:09.644Z,0
2017-07-23T04:15:50.101Z,0
2017-07-23T04:16:30.615Z,5
2017-07-23T04:17:11.124Z,5
2017-07-23T04:17:51.660Z,10
2017-07-23T04:18:32.158Z,10
2017-07-23T04:19:12.645Z,10
2017-07-23T04:19:53.170Z,10
2017-07-23T04:20:33.698Z,10
2017-07-23T04:21:14.215Z,10
2017-07-23T04:21:54.681Z,10
2017-07-23T04:22:35.162Z,10
2017-07-23T04:23:15.685Z,10
2017-07-23T04:23:56.100Z,10
2017-07-23T04:24:36.606Z,5
2017-07-23T04:25:17.107Z,5
2017-07-23T04:25:57.613Z,5
2017-07-23T04:26:38.101Z,5
2017-07-23T04:27:18.619Z,5
2017-07-23T04:27:59.112Z,5
2017-07-23T04:28:39.551Z,5
2017-07-23T04:29:20.060Z,5
2017-07-23T04:30:00.590Z,5
2017-07-23T04:30:41.266Z,5
2017-07-23T04:31:21.780Z,5
2017-07-23T04:32:02.226Z,5
2017-07-23T04:32:42.726Z,5
2017-07-23T04:33:23.239Z,5
2017-07-23T04:34:03.724Z,5
2017-07-23T04:34:44.225Z,10
2017-07-23T04:35:24.690Z,10
2017-07-23T04:36:05.201Z,10
2017-07-23T04:36:45.706Z,10
2017-07-23T04:37:26.218Z,10
2017-07-23T04:38:06.716Z,10
2017-07-23T04:38:47.208Z,10
2017-07-23T04:39:27.674Z,10
2017-07-23T04:40:08.129Z,10
2017-07-23T04:40:48.628Z,5
2017-07-23T04:41:29.143Z,5
2017-07-23T04:42:09.675Z,5
2017-07-23T04:42:50.199Z,5
2017-07-23T04:43:30.662Z,10
2017-07-23T04:44:11.137Z,10
2017-07-23T04:44:51.636Z,10
2017-07-23T04:45:32.106Z,10
2017-07-23T04:46:12.620Z,10
2017-07-23T04:46:53.163Z,10
2017-07-23T04:47:33.774Z,10
2017-07-23T04:48:14.286Z,10
2017-07-23T04:48:54.765Z,10
2017-07-23T04:49:35.249Z,10
2017-07-23T04:50:15.798Z,15
2017-07-23T04:50:56.287Z,20
2017-07-23T04:51:37.308Z,20
2017-07-23T04:52:17.323Z,20
2017-07-23T04:52:57.900Z,20
2017-07-23T04:53:38.322Z,20
2017-07-23T04:54:18.816Z,20
2017-07-23T04:54:59.354Z,20
2017-07-23T04:55:39.839Z,20
2017-07-23T04:56:20.329Z,15
2017-07-23T04:57:00.826Z,15
2017-07-23T04:57:41.312Z,15
2017-07-23T04:58:21.764Z,15
2017-07-23T04:59:02.278Z,20
2017-07-23T04:59:42.768Z,20
2017-07-23T05:00:23.277Z,15
2017-07-23T05:01:03.769Z,15
2017-07-23T05:01:44.410Z,15
2017-07-23T05:02:24.758Z,15
2017-07-23T05:03:05.278Z,15
2017-07-23T05:03:45.769Z,15
2017-07-23T05:04:26.245Z,15
2017-07-23T05:05:06.767Z,15
2017-07-23T05:05:47.223Z,15
2017-07-23T05:06:27.808Z,15
2017-07-23T05:07:08.348Z,20
2017-07-23T05:07:48.796Z,20
2017-07-23T05:08:29.312Z,25
2017-07-23T05:09:09.774Z,30
2017-07-23T05:09:50.268Z,30
2017-07-23T05:10:30.810Z,40
2017-07-23T05:11:11.309Z,50
2017-07-23T05:11:51.767Z,55
2017-07-23T05:12:32.299Z,55
2017-07-23T05:13:12.788Z,55
2017-07-23T05:13:53.264Z,55
2017-07-23T05:14:33.771Z,45
2017-07-23T05:15:14.304Z,35
2017-07-23T05:15:54.767Z,35
2017-07-23T05:16:35.257Z,40
2017-07-23T05:17:15.752Z,35
2017-07-23T05:17:56.347Z,35
2017-07-23T05:18:36.719Z,35
2017-07-23T05:19:17.204Z,35
2017-07-23T05:19:57.674Z,40
2017-07-23T05:20:38.153Z,45
2017-07-23T05:21:18.669Z,50
2017-07-23T05:21:59.115Z,50
2017-07-23T05:22:39.603Z,50
2017-07-23T05:23:20.135Z,45
2017-07-23T05:24:00.610Z,50
2017-07-23T05:24:41.112Z,50
2017-07-23T05:25:21.598Z,60
2017-07-23T05:26:02.132Z,60
2017-07-23T05:26:42.570Z,70
2017-07-23T05:27:23.063Z,90
2017-07-23T05:28:03.588Z,105
2017-07-23T05:28:44.074Z,125
2017-07-23T05:29:24.562Z,130
2017-07-23T05:30:05.109Z,130
2017-07-23T05:30:45.592Z,120
2017-07-23T05:31:26.098Z,105
2017-07-23T05:32:06.661Z,105
2017-07-23T05:32:47.119Z,105
2017-07-23T05:33:27.625Z,115
2017-07-23T05:34:08.133Z,125
2017-07-23T05:34:48.631Z,145
2017-07-23T05:35:29.129Z,150
2017-07-23T05:36:09.642Z,155
2017-07-23T05:36:50.176Z,150
2017-07-23T05:37:30.649Z,150
2017-07-23T05:38:11.152Z,140
2017-07-23T05:38:51.681Z,130
2017-07-23T05:39:32.160Z,125
2017-07-23T05:40:12.657Z,125
2017-07-23T05:40:53.184Z,125
2017-07-23T05:41:33.707Z,125
2017-07-23T05:42:14.188Z,130
2017-07-23T05:42:54.699Z,140
2017-07-23T05:43:35.198Z,150
2017-07-23T05:44:15.732Z,145
2017-07-23T05:44:56.217Z,140
2017-07-23T05:45:36.752Z,140
2017-07-23T05:46:17.241Z,140
2017-07-23T05:46:57.744Z,130
2017-07-23T05:47:38.245Z,115
2017-07-23T05:48:18.722Z,100
2017-07-23T05:48:59.209Z,90
2017-07-23T05:49:39.715Z,85
2017-07-23T05:50:20.217Z,80
2017-07-23T05:51:00.703Z,80
2017-07-23T05:51:41.245Z,75
2017-07-23T05:52:21.820Z,70
2017-07-23T05:53:02.347Z,70
2017-07-23T05:53:42.856Z,75
2017-07-23T05:54:23.348Z,70
2017-07-23T05:55:03.873Z,65
2017-07-23T05:55:44.349Z,65
2017-07-23T05:56:24.853Z,65
2017-07-23T05:57:05.373Z,65
2017-07-23T05:57:45.905Z,65
2017-07-23T05:58:26.461Z,65
2017-07-23T05:59:06.937Z,65
2017-07-23T05:59:47.444Z,75
2017-07-23T06:00:28.034Z,85
2017-07-23T06:01:08.987Z,100
2017-07-23T06:01:49.464Z,110
2017-07-23T06:02:29.966Z,120
2017-07-23T06:03:10.462Z,125
2017-07-23T06:03:51.002Z,115
2017-07-23T06:04:31.469Z,105
2017-07-23T06:05:11.925Z,105
2017-07-23T06:05:52.444Z,110
2017-07-23T06:06:32.993Z,115
2017-07-23T06:07:13.479Z,120
2017-07-23T06:07:53.980Z,115
2017-07-23T06:08:34.444Z,120
2017-07-23T06:09:14.936Z,120
2017-07-23T06:09:55.436Z,120
2017-07-23T06:10:35.953Z,125
2017-07-23T06:11:16.454Z,140
2017-07-23T06:11:56.947Z,160
2017-07-23T06:12:37.438Z,170
2017-07-23T06:13:17.945Z,185
2017-07-23T06:13:58.474Z,185
2017-07-23T06:14:38.989Z,190
2017-07-23T06:15:19.423Z,200
2017-07-23T06:15:59.914Z,220
2017-07-23T06:16:40.423Z,240
2017-07-23T06:17:20.915Z,320
2017-07-23T06:18:01.366Z,225
2017-07-23T06:18:41.900Z,220
2017-07-23T06:19:22.389Z,215
2017-07-23T06:20:02.873Z,205
2017-07-23T06:20:43.377Z,195
2017-07-23T06:21:23.936Z,190
2017-07-23T06:22:04.469Z,195
2017-07-23T06:22:44.966Z,200
2017-07-23T06:23:25.498Z,205
2017-07-23T06:24:05.987Z,210
2017-07-23T06:24:46.540Z,205
2017-07-23T06:25:27.009Z,190
2017-07-23T06:26:07.493Z,190
2017-07-23T06:26:48.009Z,200
2017-07-23T06:27:28.522Z,195
2017-07-23T06:28:09.006Z,190
2017-07-23T06:28:49.534Z,180
2017-07-23T06:29:30.015Z,170
2017-07-23T06:30:10.513Z,160
2017-07-23T06:30:50.972Z,150
2017-07-23T06:31:31.465Z,150
2017-07-23T06:32:11.998Z,150
2017-07-23T06:32:52.468Z,135
2017-07-23T06:33:32.965Z,130
2017-07-23T06:34:13.460Z,130
2017-07-23T06:34:53.980Z,145
2017-07-23T06:35:34.490Z,160
2017-07-23T06:36:14.972Z,165
2017-07-23T06:36:55.443Z,165
2017-07-23T06:37:36.000Z,195
2017-07-23T06:38:16.468Z,215
2017-07-23T06:38:56.969Z,230
2017-07-23T06:39:37.458Z,235
2017-07-23T06:40:17.928Z,215
2017-07-23T06:40:58.403Z,205
2017-07-23T06:41:39.004Z,200
2017-07-23T06:42:19.516Z,200
2017-07-23T06:43:00.040Z,195
2017-07-23T06:43:40.550Z,205
2017-07-23T06:44:21.010Z,205
2017-07-23T06:45:01.542Z,215
2017-07-23T06:45:42.027Z,225
2017-07-23T06:46:22.548Z,245
2017-07-23T06:47:03.101Z,240
2017-07-23T06:47:43.507Z,230
2017-07-23T06:48:23.983Z,245
2017-07-23T06:49:04.664Z,240
2017-07-23T06:49:45.208Z,225
2017-07-23T06:50:25.730Z,230
2017-07-23T06:51:06.466Z,235
2017-07-23T06:51:46.973Z,220
2017-07-23T06:52:27.487Z,225
2017-07-23T06:53:07.975Z,265
2017-07-23T06:53:48.503Z,255
2017-07-23T06:54:28.961Z,220
2017-07-23T06:55:09.567Z,205
2017-07-23T06:55:50.010Z,200
2017-07-23T06:56:30.499Z,235
2017-07-23T06:57:11.055Z,345
2017-07-23T06:57:51.559Z,275
2017-07-23T06:58:32.108Z,265
2017-07-23T06:59:12.703Z,270
2017-07-23T06:59:53.132Z,275
2017-07-23T07:00:33.687Z,285
2017-07-23T07:01:14.170Z,310
2017-07-23T07:01:54.721Z,280
2017-07-23T07:02:35.242Z,280
2017-07-23T07:03:15.781Z,285
2017-07-23T07:03:56.318Z,280
2017-07-23T07:04:36.883Z,300
2017-07-23T07:05:17.329Z,290
2017-07-23T07:05:57.888Z,285
2017-07-23T07:06:38.350Z,320
2017-07-23T07:07:18.924Z,330
2017-07-23T07:07:59.428Z,335
2017-07-23T07:08:39.883Z,335
2017-07-23T07:09:20.362Z,315
2017-07-23T07:10:00.947Z,325
2017-07-23T07:10:41.425Z,340
2017-07-23T07:11:21.970Z,355
2017-07-23T07:12:02.427Z,360
2017-07-23T07:12:42.966Z,350
2017-07-23T07:13:23.428Z,350
2017-07-23T07:14:03.958Z,345
2017-07-23T07:14:44.610Z,365
2017-07-23T07:15:25.203Z,350
2017-07-23T07:16:05.672Z,380
2017-07-23T07:16:46.203Z,390
2017-07-23T07:17:26.727Z,360
2017-07-23T07:18:07.312Z,370
2017-07-23T07:18:47.897Z,390
2017-07-23T07:19:28.434Z,365
2017-07-23T07:20:08.954Z,425
2017-07-23T07:20:49.405Z,385
2017-07-23T07:21:30.037Z,385
2017-07-23T07:22:10.500Z,360
2017-07-23T07:22:51.015Z,305
2017-07-23T07:23:31.485Z,310
2017-07-23T07:24:11.968Z,335
2017-07-23T07:24:52.537Z,310
2017-07-23T07:25:33.044Z,300
2017-07-23T07:26:13.533Z,310
2017-07-23T07:26:54.029Z,310
2017-07-23T07:27:35.389Z,320
2017-07-23T07:28:15.078Z,320
2017-07-23T07:28:55.631Z,310
2017-07-23T07:29:36.071Z,315
2017-07-23T07:30:16.605Z,325
2017-07-23T07:30:57.076Z,320
2017-07-23T07:31:37.575Z,335
2017-07-23T07:32:18.123Z,305
2017-07-23T07:32:58.610Z,305
2017-07-23T07:33:39.888Z,295
2017-07-23T07:34:19.699Z,270
2017-07-23T07:35:00.289Z,280
2017-07-23T07:35:40.769Z,300
2017-07-23T07:36:21.369Z,315
2017-07-23T07:37:02.396Z,300
2017-07-23T07:37:42.967Z,315
2017-07-23T07:38:23.427Z,320
2017-07-23T07:39:03.994Z,305
2017-07-23T07:39:44.452Z,280
2017-07-23T07:40:25.050Z,275
2017-07-23T07:41:05.489Z,270
2017-07-23T07:41:46.085Z,240
2017-07-23T07:42:26.546Z,215
2017-07-23T07:43:07.037Z,200
2017-07-23T07:43:47.597Z,200
2017-07-23T07:44:28.101Z,195
2017-07-23T07:45:08.701Z,220
2017-07-23T07:45:49.216Z,220
2017-07-23T07:46:29.675Z,220
2017-07-23T07:47:10.201Z,210
2017-07-23T07:47:50.713Z,210
2017-07-23T07:48:31.295Z,220
2017-07-23T07:49:11.726Z,225
2017-07-23T07:49:52.231Z,220
2017-07-23T07:50:32.762Z,235
2017-07-23T07:51:13.263Z,240
2017-07-23T07:51:53.730Z,260
2017-07-23T07:52:34.350Z,255
2017-07-23T07:53:14.817Z,250
2017-07-23T07:53:55.326Z,240
2017-07-23T07:54:35.849Z,260
2017-07-23T07:55:17.059Z,255
2017-07-23T07:55:57.684Z,250
2017-07-23T07:56:38.201Z,245
2017-07-23T07:57:18.755Z,250
2017-07-23T07:57:59.289Z,245
2017-07-23T07:58:39.836Z,265
2017-07-23T07:59:20.458Z,265
2017-07-23T08:00:00.976Z,265
2017-07-23T08:00:41.419Z,275
2017-07-23T08:01:22.061Z,295
2017-07-23T08:02:02.630Z,305
2017-07-23T08:02:43.142Z,310
2017-07-23T08:03:23.691Z,310
2017-07-23T08:04:04.894Z,310
2017-07-23T08:04:45.534Z,290
2017-07-23T08:05:26.141Z,270
2017-07-23T08:06:06.802Z,260
2017-07-23T08:06:47.435Z,250
2017-07-23T08:07:28.321Z,255
2017-07-23T08:08:08.772Z,270
2017-07-23T08:08:49.292Z,295
2017-07-23T08:09:29.773Z,325
2017-07-23T08:10:10.266Z,330
2017-07-23T08:10:50.767Z,320
2017-07-23T08:11:31.322Z,325
2017-07-23T08:12:11.792Z,295
2017-07-23T08:12:52.524Z,300
2017-07-23T08:13:33.073Z,310
2017-07-23T08:14:13.625Z,325
2017-07-23T08:14:54.178Z,320
2017-07-23T08:15:34.775Z,320
2017-07-23T08:16:15.253Z,330
2017-07-23T08:16:55.823Z,335
2017-07-23T08:17:36.388Z,310
2017-07-23T08:18:16.875Z,290
2017-07-23T08:18:57.503Z,280
2017-07-23T08:19:38.261Z,270
2017-07-23T08:20:18.801Z,265
2017-07-23T08:20:59.390Z,265
2017-07-23T08:21:39.893Z,245
2017-07-23T08:22:20.399Z,245
2017-07-23T08:23:00.905Z,245
2017-07-23T08:23:41.456Z,255
2017-07-23T08:24:21.917Z,255
2017-07-23T08:25:02.438Z,255
2017-07-23T08:25:43.033Z,250
2017-07-23T08:26:23.637Z,245
2017-07-23T08:27:04.455Z,250
2017-07-23T08:27:44.987Z,255
2017-07-23T08:28:25.697Z,270
2017-07-23T08:29:06.242Z,290
2017-07-23T08:29:46.782Z,285
2017-07-23T08:32:05.398Z,270
2017-07-23T08:32:46.076Z,250
2017-07-23T08:33:26.641Z,235
2017-07-23T08:34:07.165Z,220
2017-07-23T08:34:47.679Z,210
2017-07-23T08:35:28.203Z,195
2017-07-23T08:36:08.720Z,180
2017-07-23T08:36:49.212Z,165
2017-07-23T08:37:29.734Z,160
2017-07-23T08:38:10.242Z,175
2017-07-23T08:38:50.736Z,185
2017-07-23T08:39:31.222Z,180
2017-07-23T08:40:11.696Z,160
2017-07-23T08:40:52.187Z,150
2017-07-23T08:41:32.684Z,150
2017-07-23T08:42:13.226Z,155
2017-07-23T08:42:53.676Z,170
2017-07-23T08:43:34.238Z,180
2017-07-23T08:44:14.733Z,195
2017-07-23T08:44:55.188Z,200
2017-07-23T08:45:35.749Z,205
2017-07-23T08:46:16.680Z,220
2017-07-23T08:46:57.171Z,220
2017-07-23T08:47:37.647Z,215
2017-07-23T08:48:18.151Z,200
2017-07-23T08:48:58.674Z,180
2017-07-23T08:49:39.160Z,175
2017-07-23T08:50:19.667Z,170
2017-07-23T08:51:00.195Z,175
2017-07-23T08:51:40.766Z,185
2017-07-23T08:52:21.259Z,205
2017-07-23T08:53:01.729Z,220
2017-07-23T08:53:42.255Z,225
2017-07-23T08:54:22.781Z,225
2017-07-23T08:55:03.255Z,215
2017-07-23T08:55:44.769Z,190
2017-07-23T08:56:25.382Z,190
2017-07-23T08:57:05.886Z,195
2017-07-23T08:57:46.413Z,205
2017-07-23T08:58:26.827Z,225
2017-07-23T08:59:07.340Z,240
2017-07-23T08:59:47.997Z,260
2017-07-23T09:00:28.501Z,265
2017-07-23T09:01:09.058Z,250
2017-07-23T09:01:49.558Z,265
2017-07-23T09:02:30.275Z,240
2017-07-23T09:03:10.754Z,215
2017-07-23T09:03:51.903Z,195
2017-07-23T09:04:32.703Z,185
2017-07-23T09:05:16.932Z,180
2017-07-23T09:05:57.649Z,185
2017-07-23T09:06:38.334Z,195
2017-07-23T09:07:18.837Z,200
2017-07-23T09:07:59.903Z,190
2017-07-23T09:08:41.926Z,175
2017-07-23T09:09:23.607Z,175
2017-07-23T09:10:04.096Z,175
2017-07-23T09:10:44.663Z,165
2017-07-23T09:11:25.195Z,150
2017-07-23T09:12:05.746Z,135
2017-07-23T09:12:46.220Z,130
2017-07-23T09:13:26.704Z,140
2017-07-23T09:14:07.208Z,145
2017-07-23T09:14:47.746Z,145
2017-07-23T09:15:28.306Z,145
2017-07-23T09:16:08.834Z,145
2017-07-23T09:16:49.386Z,145
2017-07-23T09:17:29.833Z,155
2017-07-23T09:18:10.965Z,160
2017-07-23T09:18:51.474Z,160
2017-07-23T09:19:31.600Z,165
2017-07-23T09:20:12.222Z,160
2017-07-23T09:20:52.721Z,160
2017-07-23T09:21:33.232Z,160
2017-07-23T09:22:13.749Z,170
2017-07-23T09:22:54.207Z,175
2017-07-23T09:23:34.818Z,200
2017-07-23T09:24:15.234Z,215
2017-07-23T09:24:55.778Z,220
2017-07-23T09:25:36.622Z,225
2017-07-23T09:26:17.277Z,225
2017-07-23T09:26:57.771Z,225
2017-07-23T09:27:38.524Z,225
2017-07-23T09:28:20.325Z,225
2017-07-23T09:29:00.945Z,230
2017-07-23T09:29:41.461Z,225
2017-07-23T09:30:22.184Z,225
2017-07-23T09:31:02.748Z,220
2017-07-23T09:31:43.976Z,220
2017-07-23T09:32:24.445Z,200
2017-07-23T09:33:05.019Z,230
2017-07-23T09:33:46.478Z,220
2017-07-23T09:34:27.403Z,240
2017-07-23T09:35:07.766Z,235
2017-07-23T09:35:48.287Z,235
2017-07-23T09:36:30.900Z,240
2017-07-23T09:37:11.485Z,240
2017-07-23T09:37:52.222Z,210
2017-07-23T09:38:32.851Z,190
2017-07-23T09:39:13.940Z,205
2017-07-23T09:39:54.733Z,200
2017-07-23T09:40:35.614Z,205
2017-07-23T09:41:16.385Z,220
2017-07-23T09:41:56.896Z,215
2017-07-23T09:42:37.475Z,220